createdAt,value
2018-07-12T00:02:18.306Z,25.60
2018-07-12T00:04:45.584Z,24.73
2018-07-12T00:07:12.866Z,24.57
2018-07-12T00:09:40.139Z,22.73
2018-07-12T00:12:07.426Z,23.47
2018-07-12T00:14:36.657Z,21.43
2018-07-12T00:17:03.914Z,23.57
2018-07-12T00:22:17.061Z,20.23
2018-07-12T01:15:10.377Z,35.43
2018-07-12T01:17:48.437Z,33.77
2018-07-12T01:25:48.050Z,31.27
2018-07-12T01:28:15.334Z,30.10
2018-07-12T01:30:42.617Z,29.60
2018-07-12T01:33:09.899Z,27.87
2018-07-12T01:35:37.170Z,27.77
2018-07-12T01:38:04.469Z,25.20
2018-07-12T01:40:31.736Z,24.83
2018-07-12T01:42:59.017Z,23.87
2018-07-12T01:45:26.295Z,24.50
2018-07-12T01:47:53.574Z,24.07
2018-07-12T01:50:20.880Z,22.60
2018-07-12T01:52:48.129Z,22.73
2018-07-12T01:55:15.394Z,23.53
2018-07-12T01:57:42.690Z,23.73
2018-07-12T02:00:10.074Z,24.70
2018-07-12T02:02:37.344Z,22.97
2018-07-12T02:05:04.701Z,22.20
2018-07-12T02:07:31.979Z,22.00
2018-07-12T02:09:59.234Z,23.00
2018-07-12T02:12:43.377Z,23.13
2018-07-12T02:15:10.679Z,22.80
2018-07-12T02:17:37.972Z,23.03
2018-07-12T02:22:52.177Z,23.07
2018-07-12T02:25:19.710Z,21.77
2018-07-12T02:27:46.983Z,21.93
2018-07-12T02:30:14.259Z,21.90
2018-07-12T02:32:41.529Z,24.17
2018-07-12T02:35:08.851Z,23.47
2018-07-12T02:37:36.107Z,24.37
2018-07-12T02:40:03.394Z,25.63
2018-07-12T02:42:30.660Z,23.53
2018-07-12T02:44:57.948Z,24.60
2018-07-12T02:47:25.210Z,23.97
2018-07-12T02:49:52.502Z,24.17
2018-07-12T02:52:19.771Z,23.47
2018-07-12T02:54:47.063Z,24.67
2018-07-12T02:57:14.320Z,24.70
2018-07-12T02:59:41.585Z,24.80
2018-07-12T03:02:08.867Z,25.07
2018-07-12T03:04:36.122Z,25.90
2018-07-12T03:07:03.394Z,24.40
2018-07-12T03:09:30.929Z,23.27
2018-07-12T03:11:58.234Z,24.10
2018-07-12T03:14:25.526Z,24.60
2018-07-12T03:25:14.253Z,22.70
2018-07-12T03:27:41.546Z,24.37
2018-07-12T03:30:08.810Z,27.37
2018-07-12T03:32:36.102Z,28.23
2018-07-12T03:35:03.387Z,26.07
2018-07-12T03:37:30.661Z,26.73
2018-07-12T03:39:57.935Z,26.20
2018-07-12T03:42:25.207Z,25.17
2018-07-12T03:44:52.494Z,25.23
2018-07-12T03:47:19.803Z,25.23
2018-07-12T03:49:47.069Z,25.03
2018-07-12T03:52:14.346Z,24.37
2018-07-12T03:54:41.610Z,23.67
2018-07-12T03:57:08.873Z,24.67
2018-07-12T03:59:36.139Z,31.23
2018-07-12T04:02:03.418Z,23.17
2018-07-12T04:04:30.683Z,22.30
2018-07-12T04:06:57.945Z,20.67
2018-07-12T04:09:25.226Z,20.00
2018-07-12T04:11:52.749Z,17.83
2018-07-12T04:14:20.018Z,18.13
2018-07-12T04:16:47.283Z,19.17
2018-07-12T04:19:20.857Z,18.73
2018-07-12T04:21:48.145Z,16.83
2018-07-12T04:27:01.406Z,16.77
2018-07-12T04:29:28.669Z,15.97
2018-07-12T04:31:55.946Z,16.47
2018-07-12T04:34:23.221Z,15.90
2018-07-12T04:36:50.510Z,15.30
2018-07-12T04:39:17.786Z,15.10
2018-07-12T04:41:45.058Z,15.10
2018-07-12T04:44:12.318Z,13.40
2018-07-12T04:46:39.601Z,13.70
2018-07-12T04:49:06.873Z,12.63
2018-07-12T04:51:34.425Z,11.80
2018-07-12T04:54:01.706Z,11.23
2018-07-12T04:56:28.986Z,10.70
2018-07-12T04:58:56.254Z,11.13
2018-07-12T05:01:23.542Z,10.60
2018-07-12T05:03:50.806Z,10.20
2018-07-12T05:06:18.337Z,9.97
2018-07-12T05:08:45.597Z,8.60
2018-07-12T05:11:12.853Z,8.90
2018-07-12T05:19:12.330Z,8.60
2018-07-12T05:24:25.681Z,9.10
2018-07-12T05:26:52.946Z,8.70
2018-07-12T05:29:20.222Z,8.00
2018-07-12T05:31:47.494Z,7.50
2018-07-12T05:34:14.754Z,7.50
2018-07-12T05:36:51.151Z,7.53
2018-07-12T05:39:20.244Z,6.50
2018-07-12T05:41:48.722Z,7.00
2018-07-12T05:44:17.471Z,6.73
2018-07-12T05:46:45.860Z,6.77
2018-07-12T05:49:14.166Z,6.77
2018-07-12T05:51:42.612Z,6.40
2018-07-12T05:54:10.952Z,6.37
2018-07-12T05:56:39.370Z,5.50
2018-07-12T05:59:07.655Z,5.40
2018-07-12T06:01:47.366Z,5.67
2018-07-12T06:04:15.650Z,5.70
2018-07-12T06:06:43.963Z,6.03
2018-07-12T06:09:12.647Z,6.90
2018-07-12T06:11:41.118Z,6.63
2018-07-12T06:14:09.431Z,6.77
2018-07-12T06:16:37.734Z,5.83
2018-07-12T06:19:06.187Z,6.40
2018-07-12T06:21:34.835Z,6.50
2018-07-12T06:24:03.133Z,5.87
2018-07-12T06:26:31.405Z,5.90
2018-07-12T06:28:59.697Z,5.13
2018-07-12T06:31:28.010Z,5.77
2018-07-12T06:33:56.296Z,5.37
2018-07-12T06:36:24.583Z,4.70
2018-07-12T06:38:52.867Z,4.07
2018-07-12T06:41:21.179Z,4.67
2018-07-12T06:43:49.438Z,4.30
2018-07-12T06:46:17.750Z,4.00
2018-07-12T06:48:46.027Z,5.30
2018-07-12T06:51:14.319Z,3.87
2018-07-12T06:53:42.598Z,3.87
2018-07-12T06:56:10.885Z,3.77
2018-07-12T06:58:39.147Z,4.50
2018-07-12T07:01:07.398Z,4.27
2018-07-12T07:03:35.689Z,4.43
2018-07-12T07:06:03.991Z,3.50
2018-07-12T07:08:32.322Z,3.83
2018-07-12T07:11:00.598Z,3.77
2018-07-12T07:13:28.866Z,3.70
2018-07-12T07:15:57.174Z,3.80
2018-07-12T07:18:41.093Z,3.63
2018-07-12T07:24:02.287Z,3.53
2018-07-12T07:26:30.589Z,3.43
2018-07-12T07:28:58.884Z,3.47
2018-07-12T07:31:27.163Z,4.10
2018-07-12T07:33:55.474Z,6.73
2018-07-12T07:36:23.794Z,12.67
2018-07-12T07:38:52.071Z,6.63
2018-07-12T07:41:20.390Z,4.83
2018-07-12T07:43:48.670Z,3.27
2018-07-12T07:46:16.960Z,6.83
2018-07-12T07:48:45.273Z,8.43
2018-07-12T07:51:13.570Z,5.20
2018-07-12T07:53:41.858Z,5.33
2018-07-12T07:56:10.138Z,4.70
2018-07-12T07:58:38.413Z,3.90
2018-07-12T08:01:06.715Z,4.07
2018-07-12T08:03:35.003Z,4.10
2018-07-12T08:06:03.283Z,4.20
2018-07-12T08:08:31.550Z,3.47
2018-07-12T08:10:59.839Z,4.53
2018-07-12T08:13:28.119Z,13.83
2018-07-12T08:18:44.074Z,3.50
2018-07-12T08:26:54.947Z,4.63
2018-07-12T08:29:23.294Z,4.20
2018-07-12T08:31:51.614Z,4.10
2018-07-12T08:34:19.938Z,5.73
2018-07-12T08:36:48.324Z,4.80
2018-07-12T08:39:16.626Z,4.63
2018-07-12T08:41:44.938Z,3.90
2018-07-12T08:44:13.249Z,4.00
2018-07-12T08:46:41.564Z,3.80
2018-07-12T08:49:09.899Z,3.53
2018-07-12T08:51:38.277Z,3.60
2018-07-12T08:54:06.599Z,3.57
2018-07-12T08:56:34.910Z,3.90
2018-07-12T08:59:03.351Z,4.60
2018-07-12T09:01:31.730Z,3.80
2018-07-12T09:04:00.050Z,3.80
2018-07-12T09:06:28.369Z,3.50
2018-07-12T09:08:56.666Z,3.90
2018-07-12T09:11:24.963Z,3.93
2018-07-12T09:16:39.333Z,4.20
2018-07-12T09:19:07.667Z,4.10
2018-07-12T09:21:36.003Z,3.73
2018-07-12T09:24:04.249Z,4.00
2018-07-12T09:26:32.558Z,4.03
2018-07-12T09:29:00.932Z,4.67
2018-07-12T09:31:29.368Z,4.47
2018-07-12T09:33:57.655Z,4.00
2018-07-12T09:36:26.100Z,4.30
2018-07-12T09:38:54.410Z,3.77
2018-07-12T09:41:23.772Z,3.70
2018-07-12T09:43:52.454Z,3.47
2018-07-12T09:46:20.871Z,3.50
2018-07-12T09:48:50.471Z,3.60
2018-07-12T09:51:18.765Z,3.77
2018-07-12T09:53:47.717Z,4.50
2018-07-12T09:56:16.165Z,4.77
2018-07-12T09:58:44.346Z,4.77
2018-07-12T10:01:18.114Z,4.77
2018-07-12T10:03:48.903Z,4.90
2018-07-12T10:06:22.562Z,4.03
2018-07-12T10:08:59.844Z,3.57
2018-07-12T10:11:33.514Z,3.60
2018-07-12T11:23:23.646Z,4.80
2018-07-12T11:25:51.995Z,4.93
2018-07-12T11:28:20.314Z,4.10
2018-07-12T11:30:48.651Z,3.70
2018-07-12T11:33:46.297Z,4.03
2018-07-12T11:36:14.732Z,3.77
2018-07-12T11:38:43.925Z,3.70
2018-07-12T11:41:12.403Z,3.30
2018-07-12T11:43:40.766Z,3.60
2018-07-12T11:46:10.132Z,3.00
2018-07-12T11:48:39.617Z,3.53
2018-07-12T11:51:07.881Z,3.33
2018-07-12T11:53:36.169Z,3.50
2018-07-12T11:56:04.475Z,3.53
2018-07-12T11:58:32.783Z,3.30
2018-07-12T12:01:01.531Z,3.37
2018-07-12T12:03:30.109Z,3.37
2018-07-12T12:05:58.421Z,3.20
2018-07-12T12:08:26.965Z,5.77
2018-07-12T12:10:55.257Z,4.57
2018-07-12T12:13:23.537Z,3.70
2018-07-12T12:18:51.712Z,2.90
2018-07-12T12:21:22.267Z,3.40
2018-07-12T13:13:51.785Z,3.40
2018-07-12T13:19:19.239Z,3.80
2018-07-12T13:21:47.534Z,4.27
2018-07-12T13:24:30.389Z,3.57
2018-07-12T13:26:59.094Z,3.27
2018-07-12T13:29:27.407Z,3.67
2018-07-12T13:31:56.393Z,3.67
2018-07-12T13:34:24.668Z,3.87
2018-07-12T13:36:53.010Z,3.73
2018-07-12T13:39:21.346Z,3.53
2018-07-12T13:41:49.669Z,3.90
2018-07-12T13:44:20.081Z,3.67
2018-07-12T13:46:49.564Z,3.50
2018-07-12T13:49:17.841Z,3.80
2018-07-12T13:51:47.878Z,3.73
2018-07-12T13:54:16.974Z,3.60
2018-07-12T13:56:45.353Z,3.63
2018-07-12T13:59:13.630Z,4.03
2018-07-12T14:01:41.912Z,4.03
2018-07-12T14:04:10.998Z,3.93
2018-07-12T14:06:39.298Z,4.27
2018-07-12T14:09:09.833Z,3.83
2018-07-12T14:11:38.127Z,3.83
2018-07-12T14:19:39.366Z,3.30
2018-07-12T14:25:10.270Z,3.77
2018-07-12T14:27:38.577Z,4.13
2018-07-12T14:30:06.918Z,4.17
2018-07-12T14:32:35.210Z,3.30
2018-07-12T14:35:03.550Z,2.97
2018-07-12T14:37:31.890Z,3.23
2018-07-12T14:40:00.174Z,3.37
2018-07-12T14:42:28.486Z,3.43
2018-07-12T14:44:56.818Z,3.40
2018-07-12T14:47:25.126Z,2.87
2018-07-12T14:49:53.430Z,3.23
2018-07-12T14:52:21.762Z,3.27
2018-07-12T14:54:50.053Z,3.40
2018-07-12T14:57:18.337Z,3.50
2018-07-12T14:59:46.607Z,3.63
2018-07-12T15:02:14.974Z,3.37
2018-07-12T15:04:43.250Z,3.30
2018-07-12T15:07:11.507Z,3.90
2018-07-12T15:09:39.834Z,3.13
2018-07-12T15:12:08.210Z,3.80
2018-07-12T16:19:02.645Z,4.77
2018-07-12T16:21:30.986Z,4.73
2018-07-12T16:23:59.320Z,5.03
2018-07-12T16:26:27.645Z,4.23
2018-07-12T16:28:55.949Z,4.37
2018-07-12T16:31:24.262Z,4.70
2018-07-12T16:33:52.554Z,4.33
2018-07-12T16:36:20.898Z,4.93
2018-07-12T16:38:49.246Z,4.70
2018-07-12T16:41:17.556Z,5.20
2018-07-12T16:43:45.859Z,4.80
2018-07-12T16:46:14.200Z,5.03
2018-07-12T16:48:42.585Z,5.30
2018-07-12T16:51:10.893Z,5.20
2018-07-12T16:53:39.171Z,4.90
2018-07-12T16:56:07.458Z,5.20
2018-07-12T16:58:35.761Z,5.53
2018-07-12T17:01:04.046Z,4.63
2018-07-12T17:03:32.658Z,4.83
2018-07-12T17:06:00.968Z,5.33
2018-07-12T17:08:28.993Z,5.40
2018-07-12T17:10:57.335Z,4.83
2018-07-12T17:13:27.732Z,5.10
2018-07-12T17:15:56.027Z,5.20
2018-07-12T17:18:24.341Z,5.07
2018-07-12T17:23:38.902Z,4.57
2018-07-12T17:26:07.203Z,4.77
2018-07-12T17:28:35.718Z,4.63
2018-07-12T17:31:04.061Z,4.97
2018-07-12T17:33:32.425Z,5.57
2018-07-12T17:36:00.780Z,5.07
2018-07-12T17:38:29.105Z,5.00
2018-07-12T17:40:57.525Z,5.00
2018-07-12T17:43:25.867Z,4.80
2018-07-12T17:45:54.194Z,5.30
2018-07-12T17:48:22.509Z,5.03
2018-07-12T17:50:50.857Z,5.13
2018-07-12T17:53:18.913Z,5.30
2018-07-12T17:55:47.203Z,5.30
2018-07-12T17:58:15.482Z,5.63
2018-07-12T18:00:43.753Z,5.63
2018-07-12T18:03:11.781Z,5.17
2018-07-12T18:05:40.058Z,5.60
2018-07-12T18:08:08.419Z,5.90
2018-07-12T18:10:36.685Z,5.50
2018-07-12T18:18:37.209Z,5.03
2018-07-12T18:24:01.229Z,5.73
2018-07-12T18:26:29.533Z,6.10
2018-07-12T18:28:57.846Z,5.80
2018-07-12T18:31:26.182Z,5.90
2018-07-12T18:33:54.510Z,5.70
2018-07-12T18:36:22.892Z,5.77
2018-07-12T18:38:51.266Z,5.53
2018-07-12T18:41:19.569Z,5.83
2018-07-12T18:43:47.895Z,5.53
2018-07-12T18:46:16.273Z,5.70
2018-07-12T18:48:44.592Z,5.30
2018-07-12T18:51:12.898Z,5.60
2018-07-12T18:53:41.231Z,5.30
2018-07-12T18:56:09.528Z,6.20
2018-07-12T18:58:37.816Z,5.60
2018-07-12T19:01:06.133Z,5.30
2018-07-12T19:03:34.414Z,5.53
2018-07-12T19:06:02.710Z,5.27
2018-07-12T19:08:31.052Z,5.77
2018-07-12T19:10:59.297Z,5.40
2018-07-12T19:16:13.933Z,5.10
2018-07-12T19:18:42.232Z,5.07
2018-07-12T19:21:10.505Z,5.10
2018-07-12T19:23:38.816Z,7.47
2018-07-12T19:26:07.130Z,5.13
2018-07-12T19:28:35.406Z,4.80
2018-07-12T19:31:03.701Z,4.70
2018-07-12T19:33:54.745Z,4.60
2018-07-12T19:36:59.589Z,4.17
2018-07-12T19:39:30.766Z,4.70
2018-07-12T19:42:02.062Z,4.73
2018-07-12T19:45:24.633Z,4.13
2018-07-12T20:06:58.147Z,5.97
2018-07-12T20:09:34.598Z,6.57
2018-07-12T20:12:14.650Z,6.20
2018-07-12T20:26:27.082Z,5.57
2018-07-12T20:29:01.663Z,6.10
2018-07-12T20:31:33.517Z,6.50
2018-07-12T20:34:01.814Z,6.00
2018-07-12T20:36:30.146Z,5.97
2018-07-12T20:38:58.401Z,5.73
2018-07-12T20:41:26.654Z,5.87
2018-07-12T20:43:54.957Z,5.80
2018-07-12T20:46:23.254Z,5.57
2018-07-12T20:48:51.565Z,5.63
2018-07-12T20:51:19.860Z,5.97
2018-07-12T20:53:48.149Z,6.50
2018-07-12T20:56:16.448Z,6.60
2018-07-12T20:58:44.749Z,6.07
2018-07-12T21:01:13.050Z,7.00
2018-07-12T21:03:41.354Z,6.17
2018-07-12T21:06:09.640Z,6.03
2018-07-12T21:08:37.925Z,6.20
2018-07-12T21:11:06.198Z,6.30
2018-07-12T21:13:35.847Z,7.00
2018-07-12T21:16:04.337Z,7.53
2018-07-12T21:21:19.084Z,6.23
2018-07-12T21:23:55.237Z,7.47
2018-07-12T21:29:10.262Z,7.57
2018-07-12T21:31:38.585Z,6.20
2018-07-12T21:34:06.905Z,6.10
2018-07-12T21:36:41.916Z,5.87
2018-07-12T21:39:11.059Z,5.67
2018-07-12T21:41:39.593Z,6.57
2018-07-12T21:44:07.918Z,6.67
2018-07-12T21:46:36.205Z,6.93
2018-07-12T21:49:04.534Z,6.50
2018-07-12T21:51:32.862Z,6.30
2018-07-12T21:54:01.202Z,6.03
2018-07-12T21:56:29.507Z,6.33
2018-07-12T21:58:57.797Z,6.60
2018-07-12T22:01:26.083Z,6.37
2018-07-12T22:03:54.369Z,5.83
2018-07-12T22:06:32.552Z,6.77
2018-07-12T22:09:00.849Z,6.90
2018-07-12T22:11:29.139Z,6.67
2018-07-12T22:13:57.458Z,6.43
2018-07-12T22:16:25.477Z,6.40
2018-07-12T22:18:54.547Z,7.07
2018-07-12T22:21:22.577Z,6.10
2018-07-12T22:26:38.458Z,5.73
2018-07-12T22:29:06.774Z,5.70
2018-07-12T22:31:35.098Z,5.57
2018-07-12T22:34:03.427Z,5.50
2018-07-12T22:36:31.754Z,4.87
2018-07-12T22:39:00.082Z,5.07
2018-07-12T22:41:28.414Z,5.50
2018-07-12T22:44:03.030Z,5.00
2018-07-12T22:46:31.379Z,5.23
2018-07-12T22:48:59.811Z,5.50
2018-07-12T22:51:28.051Z,5.60
2018-07-12T22:53:56.381Z,5.40
2018-07-12T22:56:24.692Z,6.10
2018-07-12T22:58:52.972Z,6.17
2018-07-12T23:01:21.257Z,6.53
2018-07-12T23:03:49.550Z,6.73
2018-07-12T23:06:17.847Z,7.07
2018-07-12T23:08:46.129Z,8.17
2018-07-12T23:11:14.398Z,7.33
2018-07-12T23:13:42.417Z,7.60
2018-07-12T23:21:46.721Z,8.53
